createdAt,value
2022-11-22T00:00:01.761Z,9.80
2022-11-22T00:05:05.268Z,10.03
2022-11-22T00:10:09.943Z,10.43
2022-11-22T00:15:14.441Z,10.13
2022-11-22T00:20:17.771Z,11.10
2022-11-22T00:25:20.658Z,9.70
2022-11-22T00:30:24.808Z,11.07
2022-11-22T00:35:27.540Z,10.67
2022-11-22T00:40:30.305Z,9.90
2022-11-22T00:45:34.406Z,10.03
2022-11-22T00:50:37.229Z,9.03
2022-11-22T00:55:40.055Z,9.90
2022-11-22T01:00:44.656Z,8.80
2022-11-22T01:05:48.014Z,9.43
2022-11-22T01:10:56.750Z,9.57
2022-11-22T01:16:02.334Z,9.90
2022-11-22T01:21:05.890Z,9.70
2022-11-22T01:26:09.615Z,9.27
2022-11-22T01:31:13.694Z,10.43
2022-11-22T01:36:16.548Z,10.70
2022-11-22T01:41:19.401Z,9.83
2022-11-22T01:46:33.443Z,10.50
2022-11-22T01:51:39.657Z,10.50
2022-11-22T01:56:47.084Z,11.37
2022-11-22T02:01:51.775Z,11.67
2022-11-22T02:07:00.756Z,10.63
2022-11-22T02:12:05.997Z,11.03
2022-11-22T02:17:10.131Z,11.03
2022-11-22T02:22:24.796Z,10.50
2022-11-22T02:27:29.036Z,11.67
2022-11-22T02:32:31.806Z,11.23
2022-11-22T02:37:34.743Z,11.80
2022-11-22T02:42:38.998Z,11.80
2022-11-22T02:47:41.732Z,11.60
2022-11-22T02:52:44.478Z,12.27
2022-11-22T02:57:48.620Z,11.57
2022-11-22T03:02:51.609Z,11.77
2022-11-22T03:07:54.527Z,12.03
2022-11-22T03:12:59.607Z,12.77
2022-11-22T03:18:04.160Z,12.90
2022-11-22T03:23:06.935Z,11.63
2022-11-22T03:28:11.039Z,12.43
2022-11-22T03:33:13.848Z,11.57
2022-11-22T03:38:16.645Z,10.77
2022-11-22T03:43:21.812Z,10.67
2022-11-22T03:48:24.611Z,10.93
2022-11-22T03:53:27.349Z,11.13
2022-11-22T03:58:31.474Z,10.30
2022-11-22T04:03:34.270Z,10.00
2022-11-22T04:08:37.053Z,9.53
2022-11-22T04:13:58.480Z,8.90
2022-11-22T04:19:01.211Z,8.17
2022-11-22T04:24:23.081Z,8.13
2022-11-22T04:29:27.351Z,8.50
2022-11-22T04:34:30.271Z,7.67
2022-11-22T04:39:33.315Z,8.17
2022-11-22T04:44:43.187Z,8.57
2022-11-22T04:49:45.936Z,8.57
2022-11-22T04:54:48.678Z,8.27
2022-11-22T04:59:52.762Z,8.80
2022-11-22T05:04:55.589Z,8.87
2022-11-22T05:09:58.357Z,8.63
2022-11-22T05:15:02.447Z,7.90
2022-11-22T05:20:05.979Z,8.07
2022-11-22T05:25:11.792Z,8.53
2022-11-22T05:30:16.068Z,9.13
2022-11-22T05:35:18.850Z,9.10
2022-11-22T05:40:21.658Z,9.50
2022-11-22T05:45:26.002Z,8.10
2022-11-22T05:50:28.738Z,9.90
2022-11-22T05:55:32.131Z,9.47
2022-11-22T06:00:36.283Z,9.20
2022-11-22T06:05:39.099Z,9.53
2022-11-22T06:10:41.821Z,10.00
2022-11-22T06:15:45.922Z,9.83
2022-11-22T06:20:55.423Z,10.27
2022-11-22T06:25:59.766Z,9.57
2022-11-22T06:31:05.263Z,9.10
2022-11-22T06:36:10.123Z,9.53
2022-11-22T06:41:17.953Z,9.57
2022-11-22T06:46:24.175Z,9.20
2022-11-22T06:51:29.785Z,8.90
2022-11-22T06:56:34.112Z,9.87
2022-11-22T07:01:38.919Z,10.20
2022-11-22T07:06:44.042Z,9.57
2022-11-22T07:11:46.814Z,9.77
2022-11-22T07:16:51.016Z,10.10
2022-11-22T07:21:55.400Z,9.60
2022-11-22T07:26:58.185Z,10.27
2022-11-22T07:32:02.273Z,9.80
2022-11-22T07:37:09.024Z,9.17
2022-11-22T07:42:13.053Z,9.67
2022-11-22T07:47:22.570Z,9.33
2022-11-22T07:52:25.736Z,10.57
2022-11-22T07:57:28.475Z,10.67
2022-11-22T08:02:38.861Z,10.37
2022-11-22T08:07:47.039Z,10.27
2022-11-22T08:12:52.034Z,11.20
2022-11-22T08:17:56.174Z,10.00
2022-11-22T08:22:58.905Z,9.87
2022-11-22T08:28:04.624Z,9.80
2022-11-22T08:33:08.768Z,9.63
2022-11-22T08:38:11.514Z,9.47
2022-11-22T08:43:16.382Z,9.30
2022-11-22T08:48:22.426Z,10.13
2022-11-22T08:53:26.081Z,10.37
2022-11-22T08:58:30.452Z,9.43
2022-11-22T09:03:34.845Z,9.90
2022-11-22T09:08:40.485Z,9.43
2022-11-22T09:13:47.088Z,9.40
2022-11-22T09:18:52.473Z,9.27
2022-11-22T09:23:55.287Z,10.23
2022-11-22T09:28:58.478Z,9.07
2022-11-22T09:34:02.542Z,8.67
2022-11-22T09:39:05.369Z,9.13
2022-11-22T09:44:16.034Z,8.57
2022-11-22T09:49:30.407Z,9.53
2022-11-22T09:54:40.400Z,8.67
2022-11-22T09:59:46.959Z,8.47
2022-11-22T10:04:56.363Z,7.20
2022-11-22T10:10:05.691Z,7.10
2022-11-22T10:15:18.703Z,7.10
2022-11-22T10:20:24.858Z,6.77
2022-11-22T10:25:39.165Z,7.20
2022-11-22T10:30:49.196Z,7.50
2022-11-22T10:36:08.534Z,7.57
2022-11-22T10:41:27.003Z,7.27
2022-11-22T10:46:39.247Z,7.57
2022-11-22T10:51:52.085Z,8.37
2022-11-22T10:57:00.774Z,7.70
2022-11-22T11:02:17.252Z,7.90
2022-11-22T11:07:24.378Z,7.27
2022-11-22T11:12:35.819Z,7.30
2022-11-22T11:17:39.229Z,7.07
2022-11-22T11:28:09.436Z,7.40
2022-11-22T11:33:34.863Z,7.67
2022-11-22T11:38:51.664Z,7.80
2022-11-22T11:43:56.031Z,8.30
2022-11-22T11:49:11.474Z,8.77
2022-11-22T11:54:19.613Z,8.60
2022-11-22T11:59:26.516Z,9.77
2022-11-22T12:04:33.163Z,10.60
2022-11-22T12:09:45.250Z,10.20
2022-11-22T12:15:10.884Z,10.43
2022-11-22T12:20:19.293Z,10.73
2022-11-22T12:25:32.888Z,9.60
2022-11-22T12:30:38.632Z,10.90
2022-11-22T12:35:44.824Z,10.97
2022-11-22T12:40:53.795Z,11.10
2022-11-22T12:46:01.219Z,10.60
2022-11-22T12:51:08.297Z,10.67
2022-11-22T12:56:26.240Z,10.60
2022-11-22T13:01:45.768Z,10.13
2022-11-22T13:06:58.156Z,11.40
2022-11-22T13:12:06.321Z,11.23
2022-11-22T13:17:09.855Z,11.57
2022-11-22T13:22:20.903Z,11.03
2022-11-22T13:27:30.651Z,11.60
2022-11-22T13:32:35.944Z,11.53
2022-11-22T13:37:41.324Z,11.23
2022-11-22T13:42:45.480Z,10.63
2022-11-22T13:47:48.302Z,11.87
2022-11-22T13:52:54.487Z,10.87
2022-11-22T13:58:52.347Z,11.77
2022-11-22T14:03:55.442Z,11.53
2022-11-22T14:09:27.627Z,12.40
2022-11-22T14:14:40.242Z,12.37
2022-11-22T14:19:57.237Z,11.13
2022-11-22T14:25:17.543Z,11.73
2022-11-22T14:30:23.006Z,12.30
2022-11-22T14:35:32.287Z,12.63
2022-11-22T14:40:40.184Z,14.07
2022-11-22T14:45:50.416Z,15.03
2022-11-22T14:50:58.326Z,14.23
2022-11-22T14:56:07.438Z,16.43
2022-11-22T15:01:39.216Z,16.23
2022-11-22T15:09:11.234Z,16.87
2022-11-22T15:12:38.696Z,16.33
2022-11-22T16:01:19.067Z,17.37
2022-11-22T16:06:27.115Z,18.03
2022-11-22T16:11:32.947Z,17.40
2022-11-22T16:16:35.792Z,17.60
2022-11-22T16:21:39.863Z,21.33
2022-11-22T16:26:50.270Z,18.37
2022-11-22T16:32:00.403Z,16.43
2022-11-22T16:37:27.851Z,17.10
2022-11-22T16:42:39.263Z,15.90
2022-11-22T16:47:42.033Z,16.93
2022-11-22T16:52:46.938Z,15.67
2022-11-22T16:57:49.729Z,15.63
2022-11-22T17:02:52.480Z,16.77
2022-11-22T17:07:58.116Z,15.90
2022-11-22T17:13:00.900Z,15.90
2022-11-22T17:18:03.670Z,15.47
2022-11-22T17:23:13.810Z,17.63
2022-11-22T17:28:21.547Z,17.77
2022-11-22T17:33:32.188Z,16.33
2022-11-22T17:38:48.176Z,16.87
2022-11-22T17:43:51.625Z,16.13
2022-11-22T17:48:56.418Z,15.97
2022-11-22T17:54:03.647Z,16.23
2022-11-22T17:59:06.612Z,15.30
2022-11-22T18:04:09.379Z,15.97
2022-11-22T18:09:13.626Z,15.37
2022-11-22T18:14:16.355Z,14.53
2022-11-22T18:19:19.116Z,14.03
2022-11-22T18:24:23.215Z,14.83
2022-11-22T18:29:42.864Z,15.90
2022-11-22T18:34:46.090Z,15.77
2022-11-22T18:39:50.269Z,15.23
2022-11-22T18:44:53.100Z,16.27
2022-11-22T18:49:55.917Z,15.77
2022-11-22T18:55:00.032Z,14.80
2022-11-22T19:00:02.970Z,16.17
2022-11-22T19:05:06.476Z,14.70
2022-11-22T19:10:11.430Z,16.17
2022-11-22T19:33:14.475Z,16.93
2022-11-22T19:38:18.577Z,16.87
2022-11-22T19:55:47.621Z,16.67
2022-11-22T20:00:52.426Z,16.70
2022-11-22T20:06:01.322Z,19.13
2022-11-22T20:11:06.523Z,18.03
2022-11-22T20:16:15.433Z,17.43
2022-11-22T20:21:22.473Z,18.47
2022-11-22T20:26:27.616Z,18.30
2022-11-22T20:31:34.651Z,17.77
2022-11-22T20:36:37.937Z,17.33
2022-11-22T20:41:41.389Z,17.43
2022-11-22T20:46:45.443Z,17.67
2022-11-22T20:51:48.242Z,16.67
2022-11-22T20:56:51.052Z,16.33
2022-11-22T21:01:57.674Z,15.60
2022-11-22T21:07:02.488Z,14.23
2022-11-22T21:12:06.172Z,13.67
2022-11-22T21:17:35.875Z,15.10
2022-11-22T21:22:34.373Z,13.63
2022-11-22T21:27:39.734Z,14.47
2022-11-22T21:32:45.674Z,13.13
2022-11-22T21:37:48.696Z,13.20
2022-11-22T21:42:52.417Z,14.87
2022-11-22T21:47:58.141Z,15.00
2022-11-22T22:17:26.272Z,13.90
2022-11-22T22:22:28.984Z,12.80
2022-11-22T22:27:32.093Z,13.63
2022-11-22T22:32:36.983Z,12.73
2022-11-22T22:37:42.006Z,11.57
2022-11-22T22:42:44.782Z,12.20
2022-11-22T22:47:48.844Z,12.20
2022-11-22T22:52:51.631Z,12.73
2022-11-22T22:57:54.638Z,12.27
2022-11-22T23:02:58.760Z,12.93
2022-11-22T23:08:05.043Z,13.47
2022-11-22T23:13:07.849Z,13.13
2022-11-22T23:18:11.946Z,12.37
2022-11-22T23:23:14.715Z,13.13
2022-11-22T23:28:17.560Z,11.07
2022-11-22T23:33:21.690Z,12.90
2022-11-22T23:38:24.410Z,13.20
2022-11-22T23:43:27.457Z,13.73
2022-11-22T23:48:31.737Z,13.37
2022-11-22T23:53:34.509Z,14.07
2022-11-22T23:58:37.385Z,14.43
